KRRL/RRL METAR and TAF weather

Enter ICAO airport designator
Station Type Date Time Source
KRRL METAR 2022/06/29 00:55 UTC NOAA

KRRL 290055Z AUTO 19003KT 10SM CLR 16/15 A3006 RMK AO2 T01560148 TSNO


Station Type Date Time Source
KRRL Decoded METAR 2022/06/29 00:55 UTC NOAA

Merrill, Merrill Municipal Airport, WI, United States (KRRL) 45-11N 089-42W
Jun 28, 2022 - 08:55 PM EDT / 2022.06.29 0055 UTC
Wind: from the S (190 degrees) at 3 MPH (3 KT):0
Visibility: 10 mile(s):0
Sky conditions: clear
Temperature: 60.1 F (15.6 C)
Dew Point: 58.6 F (14.8 C)
Relative Humidity: 94%
Pressure (altimeter): 30.06 in. Hg (1017 hPa)
ob: KRRL 290055Z AUTO 19003KT 10SM CLR 16/15 A3006 RMK AO2 T01560148 TSNO
cycle: 1

Station Type Date Time Source
KRRL TAF UTC NOAA

Error!

Example: see airport list